sensor_id;sensor_type;location;lat;lon;timestamp;pressure;altitude;pressure_sealevel;temperature
69590;BMP180;56792;50.644;17.984;2023-04-22T00:01:49;99607.40;;;6.10
69590;BMP180;56792;50.644;17.984;2023-04-22T00:04:20;99605.40;;;6.06
69590;BMP180;56792;50.644;17.984;2023-04-22T00:06:51;99597.80;;;6.00
69590;BMP180;56792;50.644;17.984;2023-04-22T00:09:22;99596.40;;;6.00
69590;BMP180;56792;50.644;17.984;2023-04-22T00:11:53;99592.80;;;5.94
69590;BMP180;56792;50.644;17.984;2023-04-22T00:14:24;99594.60;;;5.90
69590;BMP180;56792;50.644;17.984;2023-04-22T00:16:55;99593.20;;;5.86
69590;BMP180;56792;50.644;17.984;2023-04-22T00:19:27;99596.00;;;5.80
69590;BMP180;56792;50.644;17.984;2023-04-22T00:21:58;99594.80;;;5.80
69590;BMP180;56792;50.644;17.984;2023-04-22T00:24:29;99596.80;;;5.70
69590;BMP180;56792;50.644;17.984;2023-04-22T00:27:00;99597.40;;;5.70
69590;BMP180;56792;50.644;17.984;2023-04-22T00:29:31;99595.00;;;5.64
69590;BMP180;56792;50.644;17.984;2023-04-22T00:32:02;99593.40;;;5.64
69590;BMP180;56792;50.644;17.984;2023-04-22T00:34:33;99590.40;;;5.60
69590;BMP180;56792;50.644;17.984;2023-04-22T00:37:04;99589.60;;;5.56
69590;BMP180;56792;50.644;17.984;2023-04-22T00:39:35;99591.60;;;5.50
69590;BMP180;56792;50.644;17.984;2023-04-22T00:42:08;99594.20;;;5.42
69590;BMP180;56792;50.644;17.984;2023-04-22T00:44:41;99599.20;;;5.40
69590;BMP180;56792;50.644;17.984;2023-04-22T00:47:12;99598.40;;;5.40
69590;BMP180;56792;50.644;17.984;2023-04-22T00:49:44;99598.60;;;5.40
69590;BMP180;56792;50.644;17.984;2023-04-22T00:52:15;99597.40;;;5.30
69590;BMP180;56792;50.644;17.984;2023-04-22T00:54:46;99595.20;;;5.22
69590;BMP180;56792;50.644;17.984;2023-04-22T00:57:19;99594.80;;;5.20
69590;BMP180;56792;50.644;17.984;2023-04-22T00:59:51;99585.40;;;5.20
69590;BMP180;56792;50.644;17.984;2023-04-22T01:02:22;99590.60;;;5.10
69590;BMP180;56792;50.644;17.984;2023-04-22T01:04:54;99593.00;;;5.10
69590;BMP180;56792;50.644;17.984;2023-04-22T01:07:25;99591.00;;;5.08
69590;BMP180;56792;50.644;17.984;2023-04-22T01:09:56;99587.80;;;5.00
69590;BMP180;56792;50.644;17.984;2023-04-22T01:12:27;99587.00;;;5.00
69590;BMP180;56792;50.644;17.984;2023-04-22T01:14:58;99592.60;;;5.00
69590;BMP180;56792;50.644;17.984;2023-04-22T01:17:30;99598.40;;;4.92
69590;BMP180;56792;50.644;17.984;2023-04-22T01:20:03;99599.20;;;4.90
69590;BMP180;56792;50.644;17.984;2023-04-22T01:22:43;99600.20;;;4.90
69590;BMP180;56792;50.644;17.984;2023-04-22T01:25:14;99598.20;;;4.90
69590;BMP180;56792;50.644;17.984;2023-04-22T01:27:46;99599.40;;;4.80
69590;BMP180;56792;50.644;17.984;2023-04-22T01:30:18;99600.80;;;4.80
69590;BMP180;56792;50.644;17.984;2023-04-22T01:32:49;99599.80;;;4.80
69590;BMP180;56792;50.644;17.984;2023-04-22T01:35:24;99603.20;;;4.74
69590;BMP180;56792;50.644;17.984;2023-04-22T01:37:55;99599.20;;;4.70
69590;BMP180;56792;50.644;17.984;2023-04-22T01:40:28;99600.20;;;4.70
69590;BMP180;56792;50.644;17.984;2023-04-22T01:43:01;99600.40;;;4.70
69590;BMP180;56792;50.644;17.984;2023-04-22T01:45:32;99600.20;;;4.60
69590;BMP180;56792;50.644;17.984;2023-04-22T01:48:03;99599.60;;;4.60
69590;BMP180;56792;50.644;17.984;2023-04-22T01:50:35;99601.80;;;4.58
69590;BMP180;56792;50.644;17.984;2023-04-22T01:53:09;99598.80;;;4.50
69590;BMP180;56792;50.644;17.984;2023-04-22T01:55:41;99603.80;;;4.50
69590;BMP180;56792;50.644;17.984;2023-04-22T01:58:14;99601.00;;;4.50
69590;BMP180;56792;50.644;17.984;2023-04-22T02:00:47;99598.80;;;4.46
69590;BMP180;56792;50.644;17.984;2023-04-22T02:03:18;99595.60;;;4.40
69590;BMP180;56792;50.644;17.984;2023-04-22T02:05:49;99592.00;;;4.30
69590;BMP180;56792;50.644;17.984;2023-04-22T02:08:21;99588.00;;;4.30
69590;BMP180;56792;50.644;17.984;2023-04-22T02:10:51;99593.60;;;4.30
69590;BMP180;56792;50.644;17.984;2023-04-22T02:13:22;99592.20;;;4.28
69590;BMP180;56792;50.644;17.984;2023-04-22T02:15:53;99590.20;;;4.20
69590;BMP180;56792;50.644;17.984;2023-04-22T02:18:24;99588.00;;;4.20
69590;BMP180;56792;50.644;17.984;2023-04-22T02:20:55;99583.80;;;4.20
69590;BMP180;56792;50.644;17.984;2023-04-22T02:23:27;99592.60;;;4.10
69590;BMP180;56792;50.644;17.984;2023-04-22T02:25:58;99590.80;;;4.10
69590;BMP180;56792;50.644;17.984;2023-04-22T02:28:31;99586.00;;;4.10
69590;BMP180;56792;50.644;17.984;2023-04-22T02:31:02;99588.20;;;4.10
69590;BMP180;56792;50.644;17.984;2023-04-22T02:33:33;99588.80;;;4.00
69590;BMP180;56792;50.644;17.984;2023-04-22T02:36:05;99589.00;;;4.00
69590;BMP180;56792;50.644;17.984;2023-04-22T02:38:36;99584.60;;;3.90
69590;BMP180;56792;50.644;17.984;2023-04-22T02:41:07;99586.60;;;3.90
69590;BMP180;56792;50.644;17.984;2023-04-22T02:43:39;99586.60;;;3.90
69590;BMP180;56792;50.644;17.984;2023-04-22T02:46:15;99583.20;;;3.90
69590;BMP180;56792;50.644;17.984;2023-04-22T02:48:46;99583.80;;;3.86
69590;BMP180;56792;50.644;17.984;2023-04-22T02:51:18;99582.00;;;3.80
69590;BMP180;56792;50.644;17.984;2023-04-22T02:53:50;99580.80;;;3.80
69590;BMP180;56792;50.644;17.984;2023-04-22T02:56:21;99579.40;;;3.70
69590;BMP180;56792;50.644;17.984;2023-04-22T02:58:52;99585.20;;;3.70
69590;BMP180;56792;50.644;17.984;2023-04-22T03:01:23;99578.20;;;3.70
69590;BMP180;56792;50.644;17.984;2023-04-22T03:03:55;99580.00;;;3.60
69590;BMP180;56792;50.644;17.984;2023-04-22T03:06:26;99579.40;;;3.60
69590;BMP180;56792;50.644;17.984;2023-04-22T03:08:57;99580.80;;;3.60
69590;BMP180;56792;50.644;17.984;2023-04-22T03:11:28;99577.00;;;3.60
69590;BMP180;56792;50.644;17.984;2023-04-22T03:13:59;99579.40;;;3.58
69590;BMP180;56792;50.644;17.984;2023-04-22T03:16:30;99576.20;;;3.50
69590;BMP180;56792;50.644;17.984;2023-04-22T03:19:01;99577.60;;;3.50
69590;BMP180;56792;50.644;17.984;2023-04-22T03:21:32;99580.80;;;3.50
69590;BMP180;56792;50.644;17.984;2023-04-22T03:24:03;99575.40;;;3.40
69590;BMP180;56792;50.644;17.984;2023-04-22T03:26:35;99578.80;;;3.40
69590;BMP180;56792;50.644;17.984;2023-04-22T03:29:06;99580.00;;;3.32
69590;BMP180;56792;50.644;17.984;2023-04-22T03:31:37;99581.20;;;3.30
69590;BMP180;56792;50.644;17.984;2023-04-22T03:34:09;99582.60;;;3.30
69590;BMP180;56792;50.644;17.984;2023-04-22T03:36:40;99584.00;;;3.22
69590;BMP180;56792;50.644;17.984;2023-04-22T03:39:11;99583.40;;;3.20
69590;BMP180;56792;50.644;17.984;2023-04-22T03:41:42;99574.60;;;3.20
69590;BMP180;56792;50.644;17.984;2023-04-22T03:44:13;99582.40;;;3.20
69590;BMP180;56792;50.644;17.984;2023-04-22T03:46:45;99578.40;;;3.20
69590;BMP180;56792;50.644;17.984;2023-04-22T03:49:25;99579.40;;;3.18
69590;BMP180;56792;50.644;17.984;2023-04-22T03:51:58;99578.40;;;3.10
69590;BMP180;56792;50.644;17.984;2023-04-22T03:54:30;99579.20;;;3.10
69590;BMP180;56792;50.644;17.984;2023-04-22T03:57:01;99577.20;;;3.10
69590;BMP180;56792;50.644;17.984;2023-04-22T03:59:32;99578.40;;;3.10
69590;BMP180;56792;50.644;17.984;2023-04-22T04:02:03;99575.00;;;3.00
69590;BMP180;56792;50.644;17.984;2023-04-22T04:04:36;99579.40;;;3.00
69590;BMP180;56792;50.644;17.984;2023-04-22T04:07:08;99581.80;;;3.00
69590;BMP180;56792;50.644;17.984;2023-04-22T04:09:39;99582.60;;;3.00
69590;BMP180;56792;50.644;17.984;2023-04-22T04:12:11;99576.40;;;3.00
69590;BMP180;56792;50.644;17.984;2023-04-22T04:14:45;99574.80;;;3.06
69590;BMP180;56792;50.644;17.984;2023-04-22T04:17:18;99578.20;;;3.10
69590;BMP180;56792;50.644;17.984;2023-04-22T04:19:50;99574.40;;;3.10
69590;BMP180;56792;50.644;17.984;2023-04-22T04:22:21;99577.00;;;3.10
69590;BMP180;56792;50.644;17.984;2023-04-22T04:24:58;99570.00;;;3.10
69590;BMP180;56792;50.644;17.984;2023-04-22T04:27:33;99574.40;;;3.10
69590;BMP180;56792;50.644;17.984;2023-04-22T04:30:05;99571.40;;;3.10
69590;BMP180;56792;50.644;17.984;2023-04-22T04:32:43;99573.40;;;3.18
69590;BMP180;56792;50.644;17.984;2023-04-22T04:35:16;99573.80;;;3.20
69590;BMP180;56792;50.644;17.984;2023-04-22T04:37:50;99574.20;;;3.20
69590;BMP180;56792;50.644;17.984;2023-04-22T04:40:23;99580.00;;;3.24
69590;BMP180;56792;50.644;17.984;2023-04-22T04:43:06;99580.40;;;3.30
69590;BMP180;56792;50.644;17.984;2023-04-22T04:45:44;99582.40;;;3.30
69590;BMP180;56792;50.644;17.984;2023-04-22T04:48:17;99583.20;;;3.40
69590;BMP180;56792;50.644;17.984;2023-04-22T04:50:53;99582.60;;;3.42
69590;BMP180;56792;50.644;17.984;2023-04-22T04:53:24;99581.60;;;3.50
69590;BMP180;56792;50.644;17.984;2023-04-22T04:55:55;99579.20;;;3.50
69590;BMP180;56792;50.644;17.984;2023-04-22T04:58:28;99578.80;;;3.60
69590;BMP180;56792;50.644;17.984;2023-04-22T05:01:11;99583.60;;;3.70
69590;BMP180;56792;50.644;17.984;2023-04-22T05:03:43;99585.40;;;3.72
69590;BMP180;56792;50.644;17.984;2023-04-22T05:06:16;99581.00;;;3.80
69590;BMP180;56792;50.644;17.984;2023-04-22T05:08:51;99585.40;;;3.90
69590;BMP180;56792;50.644;17.984;2023-04-22T05:11:22;99583.20;;;4.00
69590;BMP180;56792;50.644;17.984;2023-04-22T05:13:53;99587.40;;;4.10
69590;BMP180;56792;50.644;17.984;2023-04-22T05:16:30;99582.40;;;4.20
69590;BMP180;56792;50.644;17.984;2023-04-22T05:19:01;99579.80;;;4.30
69590;BMP180;56792;50.644;17.984;2023-04-22T05:21:32;99579.00;;;4.36
69590;BMP180;56792;50.644;17.984;2023-04-22T05:24:03;99588.00;;;4.46
69590;BMP180;56792;50.644;17.984;2023-04-22T05:26:34;99587.80;;;4.60
69590;BMP180;56792;50.644;17.984;2023-04-22T05:29:09;99586.60;;;4.70
69590;BMP180;56792;50.644;17.984;2023-04-22T05:31:41;99588.20;;;4.80
69590;BMP180;56792;50.644;17.984;2023-04-22T05:34:12;99584.80;;;4.90
69590;BMP180;56792;50.644;17.984;2023-04-22T05:36:43;99592.20;;;5.00
69590;BMP180;56792;50.644;17.984;2023-04-22T05:39:15;99588.80;;;5.10
69590;BMP180;56792;50.644;17.984;2023-04-22T05:41:47;99591.60;;;5.30
69590;BMP180;56792;50.644;17.984;2023-04-22T05:44:19;99595.80;;;5.40
69590;BMP180;56792;50.644;17.984;2023-04-22T05:46:50;99592.80;;;5.58
69590;BMP180;56792;50.644;17.984;2023-04-22T05:49:21;99599.40;;;5.70
69590;BMP180;56792;50.644;17.984;2023-04-22T05:52:04;99596.20;;;5.90
69590;BMP180;56792;50.644;17.984;2023-04-22T05:54:43;99598.60;;;6.10
69590;BMP180;56792;50.644;17.984;2023-04-22T05:57:15;99591.00;;;6.28
69590;BMP180;56792;50.644;17.984;2023-04-22T05:59:46;99593.20;;;6.40
69590;BMP180;56792;50.644;17.984;2023-04-22T06:02:17;99596.00;;;6.60
69590;BMP180;56792;50.644;17.984;2023-04-22T06:04:48;99598.40;;;6.80
69590;BMP180;56792;50.644;17.984;2023-04-22T06:07:19;99601.60;;;7.00
69590;BMP180;56792;50.644;17.984;2023-04-22T06:09:50;99603.60;;;7.30
69590;BMP180;56792;50.644;17.984;2023-04-22T06:12:22;99602.80;;;7.56
69590;BMP180;56792;50.644;17.984;2023-04-22T06:14:53;99602.60;;;7.82
69590;BMP180;56792;50.644;17.984;2023-04-22T06:17:24;99602.00;;;8.10
69590;BMP180;56792;50.644;17.984;2023-04-22T06:19:55;99598.00;;;8.30
69590;BMP180;56792;50.644;17.984;2023-04-22T06:22:26;99601.40;;;8.60
69590;BMP180;56792;50.644;17.984;2023-04-22T06:24:57;99595.40;;;8.80
69590;BMP180;56792;50.644;17.984;2023-04-22T06:27:28;99591.20;;;9.04
69590;BMP180;56792;50.644;17.984;2023-04-22T06:29:59;99593.40;;;9.30
69590;BMP180;56792;50.644;17.984;2023-04-22T06:32:30;99588.40;;;9.52
69590;BMP180;56792;50.644;17.984;2023-04-22T06:35:01;99590.60;;;9.80
69590;BMP180;56792;50.644;17.984;2023-04-22T06:37:32;99598.40;;;10.04
69590;BMP180;56792;50.644;17.984;2023-04-22T06:40:04;99602.80;;;10.28
69590;BMP180;56792;50.644;17.984;2023-04-22T06:42:55;99600.80;;;10.50
69590;BMP180;56792;50.644;17.984;2023-04-22T06:45:56;99596.20;;;10.80
69590;BMP180;56792;50.644;17.984;2023-04-22T06:48:37;99599.20;;;11.00
69590;BMP180;56792;50.644;17.984;2023-04-22T06:51:17;99598.20;;;11.30
69590;BMP180;56792;50.644;17.984;2023-04-22T06:53:48;99595.60;;;11.40
69590;BMP180;56792;50.644;17.984;2023-04-22T06:56:19;99593.60;;;11.60
69590;BMP180;56792;50.644;17.984;2023-04-22T06:58:50;99599.20;;;11.84
69590;BMP180;56792;50.644;17.984;2023-04-22T07:01:22;99599.20;;;12.12
69590;BMP180;56792;50.644;17.984;2023-04-22T07:03:54;99597.80;;;12.40
69590;BMP180;56792;50.644;17.984;2023-04-22T07:06:25;99600.40;;;12.70
69590;BMP180;56792;50.644;17.984;2023-04-22T07:08:56;99598.00;;;12.98
69590;BMP180;56792;50.644;17.984;2023-04-22T07:11:27;99603.60;;;13.20
69590;BMP180;56792;50.644;17.984;2023-04-22T07:14:13;99602.20;;;13.38
69590;BMP180;56792;50.644;17.984;2023-04-22T07:16:44;99605.40;;;13.60
69590;BMP180;56792;50.644;17.984;2023-04-22T07:19:15;99610.60;;;13.88
69590;BMP180;56792;50.644;17.984;2023-04-22T07:21:46;99611.40;;;14.10
69590;BMP180;56792;50.644;17.984;2023-04-22T07:24:17;99609.40;;;14.40
69590;BMP180;56792;50.644;17.984;2023-04-22T07:26:48;99609.00;;;14.60
69590;BMP180;56792;50.644;17.984;2023-04-22T07:29:19;99609.80;;;14.82
69590;BMP180;56792;50.644;17.984;2023-04-22T07:31:50;99612.00;;;15.00
69590;BMP180;56792;50.644;17.984;2023-04-22T07:34:21;99613.00;;;15.30
69590;BMP180;56792;50.644;17.984;2023-04-22T07:36:53;99612.80;;;15.40
69590;BMP180;56792;50.644;17.984;2023-04-22T07:39:24;99614.80;;;15.70
69590;BMP180;56792;50.644;17.984;2023-04-22T07:41:55;99611.20;;;15.90
69590;BMP180;56792;50.644;17.984;2023-04-22T07:44:26;99611.00;;;16.10
69590;BMP180;56792;50.644;17.984;2023-04-22T07:46:57;99614.60;;;16.30
69590;BMP180;56792;50.644;17.984;2023-04-22T07:49:28;99618.20;;;16.40
69590;BMP180;56792;50.644;17.984;2023-04-22T07:51:59;99618.60;;;16.60
69590;BMP180;56792;50.644;17.984;2023-04-22T07:54:30;99613.80;;;16.78
69590;BMP180;56792;50.644;17.984;2023-04-22T07:57:01;99613.60;;;17.00
69590;BMP180;56792;50.644;17.984;2023-04-22T07:59:31;99616.20;;;17.20
69590;BMP180;56792;50.644;17.984;2023-04-22T08:02:02;99613.40;;;17.40
69590;BMP180;56792;50.644;17.984;2023-04-22T08:04:33;99612.60;;;17.60
69590;BMP180;56792;50.644;17.984;2023-04-22T08:07:05;99611.00;;;17.82
69590;BMP180;56792;50.644;17.984;2023-04-22T08:09:36;99610.20;;;18.10
69590;BMP180;56792;50.644;17.984;2023-04-22T08:12:07;99610.80;;;18.28
69590;BMP180;56792;50.644;17.984;2023-04-22T08:14:38;99613.20;;;18.50
69590;BMP180;56792;50.644;17.984;2023-04-22T08:17:09;99609.20;;;18.62
69590;BMP180;56792;50.644;17.984;2023-04-22T08:19:40;99608.00;;;18.80
69590;BMP180;56792;50.644;17.984;2023-04-22T08:22:11;99609.80;;;18.90
69590;BMP180;56792;50.644;17.984;2023-04-22T08:24:42;99614.00;;;19.10
69590;BMP180;56792;50.644;17.984;2023-04-22T08:27:13;99614.80;;;19.40
69590;BMP180;56792;50.644;17.984;2023-04-22T08:29:44;99615.20;;;19.60
69590;BMP180;56792;50.644;17.984;2023-04-22T08:32:15;99614.00;;;19.80
69590;BMP180;56792;50.644;17.984;2023-04-22T08:34:48;99609.60;;;20.00
69590;BMP180;56792;50.644;17.984;2023-04-22T08:37:19;99607.60;;;20.20
69590;BMP180;56792;50.644;17.984;2023-04-22T08:39:50;99611.40;;;20.30
69590;BMP180;56792;50.644;17.984;2023-04-22T08:42:21;99604.80;;;20.50
69590;BMP180;56792;50.644;17.984;2023-04-22T08:44:53;99603.20;;;20.70
69590;BMP180;56792;50.644;17.984;2023-04-22T08:47:25;99602.00;;;20.74
69590;BMP180;56792;50.644;17.984;2023-04-22T08:49:58;99601.60;;;20.80
69590;BMP180;56792;50.644;17.984;2023-04-22T08:52:31;99597.80;;;20.90
69590;BMP180;56792;50.644;17.984;2023-04-22T08:55:03;99599.00;;;21.00
69590;BMP180;56792;50.644;17.984;2023-04-22T08:57:36;99603.80;;;21.10
69590;BMP180;56792;50.644;17.984;2023-04-22T09:00:10;99601.80;;;21.30
69590;BMP180;56792;50.644;17.984;2023-04-22T09:02:44;99606.80;;;21.56
69590;BMP180;56792;50.644;17.984;2023-04-22T09:05:16;99599.80;;;21.80
69590;BMP180;56792;50.644;17.984;2023-04-22T09:07:48;99600.40;;;22.00
69590;BMP180;56792;50.644;17.984;2023-04-22T09:10:20;99605.40;;;22.00
69590;BMP180;56792;50.644;17.984;2023-04-22T09:12:51;99605.40;;;22.20
69590;BMP180;56792;50.644;17.984;2023-04-22T09:15:23;99606.60;;;22.40
69590;BMP180;56792;50.644;17.984;2023-04-22T09:17:54;99604.40;;;22.70
69590;BMP180;56792;50.644;17.984;2023-04-22T09:20:30;99603.40;;;23.04
69590;BMP180;56792;50.644;17.984;2023-04-22T09:23:05;99601.40;;;23.40
69590;BMP180;56792;50.644;17.984;2023-04-22T09:25:36;99602.60;;;23.50
69590;BMP180;56792;50.644;17.984;2023-04-22T09:28:11;99605.80;;;23.76
69590;BMP180;56792;50.644;17.984;2023-04-22T09:30:47;99595.20;;;24.24
69590;BMP180;56792;50.644;17.984;2023-04-22T09:33:18;99593.00;;;25.04
69590;BMP180;56792;50.644;17.984;2023-04-22T09:35:49;99594.20;;;25.86
69590;BMP180;56792;50.644;17.984;2023-04-22T09:38:22;99593.20;;;26.58
69590;BMP180;56792;50.644;17.984;2023-04-22T09:40:53;99590.00;;;27.30
69590;BMP180;56792;50.644;17.984;2023-04-22T09:43:24;99590.00;;;27.90
69590;BMP180;56792;50.644;17.984;2023-04-22T09:45:59;99593.20;;;28.50
69590;BMP180;56792;50.644;17.984;2023-04-22T09:48:30;99590.00;;;28.98
69590;BMP180;56792;50.644;17.984;2023-04-22T09:51:01;99587.40;;;29.50
69590;BMP180;56792;50.644;17.984;2023-04-22T09:53:44;99587.00;;;30.12
69590;BMP180;56792;50.644;17.984;2023-04-22T09:56:15;99586.00;;;30.60
69590;BMP180;56792;50.644;17.984;2023-04-22T09:58:52;99581.00;;;30.80
69590;BMP180;56792;50.644;17.984;2023-04-22T10:01:33;99585.80;;;30.80
69590;BMP180;56792;50.644;17.984;2023-04-22T10:04:04;99581.20;;;30.82
69590;BMP180;56792;50.644;17.984;2023-04-22T10:06:36;99585.20;;;30.82
69590;BMP180;56792;50.644;17.984;2023-04-22T10:09:07;99580.60;;;31.18
69590;BMP180;56792;50.644;17.984;2023-04-22T10:11:38;99577.80;;;31.62
69590;BMP180;56792;50.644;17.984;2023-04-22T10:14:10;99580.80;;;32.26
69590;BMP180;56792;50.644;17.984;2023-04-22T10:16:45;99575.00;;;32.70
69590;BMP180;56792;50.644;17.984;2023-04-22T10:19:21;99572.00;;;33.20
69590;BMP180;56792;50.644;17.984;2023-04-22T10:21:56;99568.00;;;33.90
69590;BMP180;56792;50.644;17.984;2023-04-22T10:24:33;99576.00;;;34.60
69590;BMP180;56792;50.644;17.984;2023-04-22T10:27:05;99569.40;;;34.90
69590;BMP180;56792;50.644;17.984;2023-04-22T10:29:41;99568.20;;;34.98
69590;BMP180;56792;50.644;17.984;2023-04-22T10:32:26;99566.20;;;35.62
69590;BMP180;56792;50.644;17.984;2023-04-22T10:35:13;99569.00;;;35.90
69590;BMP180;56792;50.644;17.984;2023-04-22T10:37:46;99564.60;;;36.00
69590;BMP180;56792;50.644;17.984;2023-04-22T10:40:19;99563.60;;;35.50
69590;BMP180;56792;50.644;17.984;2023-04-22T10:42:57;99563.60;;;35.50
69590;BMP180;56792;50.644;17.984;2023-04-22T10:45:34;99560.20;;;35.74
69590;BMP180;56792;50.644;17.984;2023-04-22T10:48:06;99559.00;;;36.30
69590;BMP180;56792;50.644;17.984;2023-04-22T10:50:38;99561.40;;;36.34
69590;BMP180;56792;50.644;17.984;2023-04-22T10:53:38;99561.80;;;36.20
69590;BMP180;56792;50.644;17.984;2023-04-22T10:56:19;99553.60;;;36.44
69590;BMP180;56792;50.644;17.984;2023-04-22T10:58:51;99557.80;;;36.60
69590;BMP180;56792;50.644;17.984;2023-04-22T11:01:22;99560.60;;;36.28
69590;BMP180;56792;50.644;17.984;2023-04-22T11:03:54;99559.20;;;36.58
69590;BMP180;56792;50.644;17.984;2023-04-22T11:06:45;99560.60;;;37.00
69590;BMP180;56792;50.644;17.984;2023-04-22T11:09:15;99556.60;;;37.30
69590;BMP180;56792;50.644;17.984;2023-04-22T11:11:47;99560.80;;;37.70
69590;BMP180;56792;50.644;17.984;2023-04-22T11:14:18;99552.20;;;38.42
69590;BMP180;56792;50.644;17.984;2023-04-22T11:16:53;99556.80;;;39.34
69590;BMP180;56792;50.644;17.984;2023-04-22T11:19:24;99557.00;;;39.70
69590;BMP180;56792;50.644;17.984;2023-04-22T11:21:57;99549.60;;;39.92
69590;BMP180;56792;50.644;17.984;2023-04-22T11:24:28;99552.00;;;40.20
69590;BMP180;56792;50.644;17.984;2023-04-22T11:26:59;99550.60;;;40.22
69590;BMP180;56792;50.644;17.984;2023-04-22T11:29:30;99544.00;;;40.30
69590;BMP180;56792;50.644;17.984;2023-04-22T11:32:03;99541.80;;;40.70
69590;BMP180;56792;50.644;17.984;2023-04-22T11:34:34;99543.20;;;40.22
69590;BMP180;56792;50.644;17.984;2023-04-22T11:37:05;99539.40;;;40.44
69590;BMP180;56792;50.644;17.984;2023-04-22T11:39:39;99535.20;;;40.80
69590;BMP180;56792;50.644;17.984;2023-04-22T11:42:12;99532.40;;;40.32
69590;BMP180;56792;50.644;17.984;2023-04-22T11:44:46;99532.80;;;40.10
69590;BMP180;56792;50.644;17.984;2023-04-22T11:47:17;99528.60;;;40.10
69590;BMP180;56792;50.644;17.984;2023-04-22T11:49:59;99531.00;;;40.26
69590;BMP180;56792;50.644;17.984;2023-04-22T11:52:46;99522.80;;;40.34
69590;BMP180;56792;50.644;17.984;2023-04-22T11:55:20;99522.00;;;40.86
69590;BMP180;56792;50.644;17.984;2023-04-22T11:57:57;99523.60;;;40.70
69590;BMP180;56792;50.644;17.984;2023-04-22T12:00:33;99521.40;;;40.40
69590;BMP180;56792;50.644;17.984;2023-04-22T12:03:11;99524.60;;;40.38
69590;BMP180;56792;50.644;17.984;2023-04-22T12:05:44;99518.80;;;40.64
69590;BMP180;56792;50.644;17.984;2023-04-22T12:08:17;99519.00;;;41.00
69590;BMP180;56792;50.644;17.984;2023-04-22T12:10:52;99515.20;;;41.46
69590;BMP180;56792;50.644;17.984;2023-04-22T12:13:26;99508.20;;;41.84
69590;BMP180;56792;50.644;17.984;2023-04-22T12:16:02;99513.80;;;42.36
69590;BMP180;56792;50.644;17.984;2023-04-22T12:18:35;99511.40;;;42.90
69590;BMP180;56792;50.644;17.984;2023-04-22T12:21:13;99512.20;;;42.64
69590;BMP180;56792;50.644;17.984;2023-04-22T12:23:45;99512.20;;;42.60
69590;BMP180;56792;50.644;17.984;2023-04-22T12:26:19;99503.40;;;42.60
69590;BMP180;56792;50.644;17.984;2023-04-22T12:28:52;99502.60;;;42.80
69590;BMP180;56792;50.644;17.984;2023-04-22T12:31:23;99506.20;;;42.78
69590;BMP180;56792;50.644;17.984;2023-04-22T12:33:54;99507.80;;;42.42
69590;BMP180;56792;50.644;17.984;2023-04-22T12:36:25;99502.20;;;42.30
69590;BMP180;56792;50.644;17.984;2023-04-22T12:38:56;99502.40;;;42.76
69590;BMP180;56792;50.644;17.984;2023-04-22T12:41:27;99496.20;;;42.60
69590;BMP180;56792;50.644;17.984;2023-04-22T12:43:58;99497.80;;;42.74
69590;BMP180;56792;50.644;17.984;2023-04-22T12:46:29;99497.00;;;42.62
69590;BMP180;56792;50.644;17.984;2023-04-22T12:49:00;99500.40;;;42.66
69590;BMP180;56792;50.644;17.984;2023-04-22T12:51:31;99498.20;;;42.48
69590;BMP180;56792;50.644;17.984;2023-04-22T12:54:02;99494.60;;;42.26
69590;BMP180;56792;50.644;17.984;2023-04-22T12:56:33;99483.80;;;42.30
69590;BMP180;56792;50.644;17.984;2023-04-22T12:59:04;99486.20;;;42.68
69590;BMP180;56792;50.644;17.984;2023-04-22T13:01:35;99482.60;;;42.12
69590;BMP180;56792;50.644;17.984;2023-04-22T13:04:07;99481.40;;;41.90
69590;BMP180;56792;50.644;17.984;2023-04-22T13:06:37;99480.60;;;42.10
69590;BMP180;56792;50.644;17.984;2023-04-22T13:09:10;99479.80;;;42.20
69590;BMP180;56792;50.644;17.984;2023-04-22T13:11:41;99480.40;;;41.94
69590;BMP180;56792;50.644;17.984;2023-04-22T13:14:12;99474.80;;;41.16
69590;BMP180;56792;50.644;17.984;2023-04-22T13:16:43;99474.20;;;41.00
69590;BMP180;56792;50.644;17.984;2023-04-22T13:19:15;99466.00;;;41.08
69590;BMP180;56792;50.644;17.984;2023-04-22T13:21:46;99465.20;;;41.30
69590;BMP180;56792;50.644;17.984;2023-04-22T13:24:16;99461.60;;;41.20
69590;BMP180;56792;50.644;17.984;2023-04-22T13:26:49;99457.40;;;41.26
69590;BMP180;56792;50.644;17.984;2023-04-22T13:29:20;99467.40;;;40.80
69590;BMP180;56792;50.644;17.984;2023-04-22T13:31:51;99472.40;;;39.48
69590;BMP180;56792;50.644;17.984;2023-04-22T13:34:22;99469.40;;;37.86
69590;BMP180;56792;50.644;17.984;2023-04-22T13:36:53;99466.40;;;35.84
69590;BMP180;56792;50.644;17.984;2023-04-22T13:39:24;99465.80;;;34.08
69590;BMP180;56792;50.644;17.984;2023-04-22T13:41:56;99463.80;;;32.50
69590;BMP180;56792;50.644;17.984;2023-04-22T13:44:27;99463.00;;;31.20
69590;BMP180;56792;50.644;17.984;2023-04-22T13:46:59;99456.00;;;29.96
69590;BMP180;56792;50.644;17.984;2023-04-22T13:49:30;99451.20;;;28.88
69590;BMP180;56792;50.644;17.984;2023-04-22T13:52:01;99453.40;;;28.22
69590;BMP180;56792;50.644;17.984;2023-04-22T13:54:32;99449.60;;;27.68
69590;BMP180;56792;50.644;17.984;2023-04-22T13:57:03;99445.80;;;27.24
69590;BMP180;56792;50.644;17.984;2023-04-22T13:59:36;99442.00;;;26.90
69590;BMP180;56792;50.644;17.984;2023-04-22T14:02:07;99442.80;;;26.58
69590;BMP180;56792;50.644;17.984;2023-04-22T14:04:38;99446.40;;;26.30
69590;BMP180;56792;50.644;17.984;2023-04-22T14:07:10;99440.60;;;25.80
69590;BMP180;56792;50.644;17.984;2023-04-22T14:09:42;99432.60;;;25.50
69590;BMP180;56792;50.644;17.984;2023-04-22T14:12:13;99435.80;;;25.20
69590;BMP180;56792;50.644;17.984;2023-04-22T14:14:44;99434.40;;;24.80
69590;BMP180;56792;50.644;17.984;2023-04-22T14:17:15;99430.60;;;24.40
69590;BMP180;56792;50.644;17.984;2023-04-22T14:19:48;99430.80;;;24.20
69590;BMP180;56792;50.644;17.984;2023-04-22T14:22:19;99424.80;;;24.20
69590;BMP180;56792;50.644;17.984;2023-04-22T14:24:50;99424.40;;;24.10
69590;BMP180;56792;50.644;17.984;2023-04-22T14:27:21;99424.80;;;24.00
69590;BMP180;56792;50.644;17.984;2023-04-22T14:29:52;99417.20;;;23.90
69590;BMP180;56792;50.644;17.984;2023-04-22T14:32:23;99413.20;;;23.90